Time;durP1;ratioP1;P1;durP2;ratioP2;P2;SDS_P1;SDS_P2;PMS_P1;PMS_P2;Temp;Humidity;BMP_temperature;BMP_pressure;BME280_temperature;BME280_humidity;BME280_pressure;Samples;Min_cycle;Max_cycle;Signal;HPM_P1;HPM_P2
2023/07/24 00:02:03;;;;;;;3.65;2.33;;;18.00;99.90;;;;;;4954881;28;20287;-78
2023/07/24 00:04:31;;;;;;;9.27;3.50;;;17.90;99.90;;;;;;4972013;28;20495;-78
2023/07/24 00:06:57;;;;;;;5.05;3.55;;;17.80;99.90;;;;;;4972007;28;20209;-78
2023/07/24 00:09:23;;;;;;;7.28;3.20;;;17.70;99.90;;;;;;4954847;28;20184;-78
2023/07/24 00:11:48;;;;;;;6.07;2.90;;;17.70;99.90;;;;;;4954498;28;20029;-77
2023/07/24 00:14:15;;;;;;;8.70;3.08;;;17.60;99.90;;;;;;4954661;28;20039;-78
2023/07/24 00:16:41;;;;;;;4.90;3.00;;;17.50;99.90;;;;;;4954461;28;20031;-78
2023/07/24 00:19:07;;;;;;;4.40;3.08;;;17.40;99.90;;;;;;4971955;28;20503;-78
2023/07/24 00:21:33;;;;;;;6.57;3.65;;;17.40;99.90;;;;;;4971613;28;20050;-78
2023/07/24 00:23:58;;;;;;;3.67;2.55;;;17.40;99.90;;;;;;4954502;28;20027;-78
2023/07/24 00:26:24;;;;;;;5.32;2.70;;;17.40;99.90;;;;;;4972068;28;20023;-78
2023/07/24 00:28:50;;;;;;;5.63;3.00;;;17.40;99.90;;;;;;4954521;28;20034;-78
2023/07/24 00:31:15;;;;;;;9.00;4.43;;;17.40;99.90;;;;;;4954462;28;20023;-78
2023/07/24 00:33:41;;;;;;;5.95;3.30;;;17.30;99.90;;;;;;4972006;28;20039;-79
2023/07/24 00:36:06;;;;;;;4.80;3.00;;;17.20;99.90;;;;;;4953938;28;20027;-79
2023/07/24 00:38:32;;;;;;;6.43;3.47;;;17.10;99.90;;;;;;4971897;28;20456;-78
2023/07/24 00:40:58;;;;;;;7.90;3.15;;;17.20;99.90;;;;;;4954369;28;20042;-78
2023/07/24 00:43:23;;;;;;;4.63;3.05;;;17.20;99.90;;;;;;4971381;28;20041;-78
2023/07/24 00:45:49;;;;;;;5.05;2.88;;;17.20;99.90;;;;;;4971620;28;20027;-79
2023/07/24 00:48:15;;;;;;;6.85;3.17;;;17.20;99.90;;;;;;4971326;28;20349;-78
2023/07/24 00:50:43;;;;;;;6.80;3.25;;;17.00;99.90;;;;;;4970805;28;20045;-78
2023/07/24 00:53:11;;;;;;;6.10;2.80;;;17.10;99.90;;;;;;4953950;28;20027;-78
2023/07/24 00:55:37;;;;;;;5.95;3.28;;;17.10;99.90;;;;;;4971317;28;20031;-78
2023/07/24 00:58:03;;;;;;;6.60;3.33;;;17.10;99.90;;;;;;4953986;28;20124;-78
2023/07/24 01:00:29;;;;;;;7.70;4.30;;;17.10;99.90;;;;;;4954166;28;20444;-78
2023/07/24 01:02:56;;;;;;;4.63;3.42;;;17.00;99.90;;;;;;4954059;28;20468;-78
2023/07/24 01:05:24;;;;;;;5.70;4.00;;;17.10;99.90;;;;;;4953277;28;20058;-78
2023/07/24 01:07:50;;;;;;;4.00;2.47;;;17.20;99.90;;;;;;4953593;28;20034;-78
2023/07/24 01:10:16;;;;;;;5.60;2.92;;;17.10;99.90;;;;;;4953440;28;20337;-78
2023/07/24 01:13:00;;;;;;;6.15;2.75;;;17.30;99.90;;;;;;4971304;28;20041;-78
2023/07/24 01:15:34;;;;;;;4.60;3.22;;;17.30;99.90;;;;;;4953558;28;20046;-78
2023/07/24 01:18:03;;;;;;;6.22;2.90;;;17.20;99.90;;;;;;4971275;28;20023;-78
2023/07/24 01:20:30;;;;;;;7.82;3.63;;;17.20;99.90;;;;;;4953182;28;20030;-78
2023/07/24 01:23:13;;;;;;;6.13;3.30;;;17.20;99.90;;;;;;4970835;28;20042;-78
2023/07/24 01:25:57;;;;;;;4.35;2.25;;;17.20;99.90;;;;;;4953299;28;20365;-78
2023/07/24 01:28:23;;;;;;;5.10;3.67;;;17.20;99.90;;;;;;4953427;28;20061;-78
2023/07/24 01:30:48;;;;;;;7.25;2.88;;;17.20;99.90;;;;;;4953152;28;20019;-78
2023/07/24 01:33:14;;;;;;;6.38;3.75;;;17.20;99.90;;;;;;4953491;28;20034;-78
2023/07/24 01:35:43;;;;;;;4.68;3.17;;;17.30;99.90;;;;;;4952208;28;20035;-78
2023/07/24 01:38:10;;;;;;;8.30;3.25;;;17.30;99.90;;;;;;4971298;28;20029;-78
2023/07/24 01:40:36;;;;;;;8.43;3.80;;;17.40;99.90;;;;;;4954229;28;20181;-78
2023/07/24 01:43:02;;;;;;;4.90;3.00;;;17.40;99.90;;;;;;4953463;28;20532;-78
2023/07/24 01:45:27;;;;;;;8.25;2.83;;;17.40;99.90;;;;;;4970572;28;20019;-78
2023/07/24 01:47:53;;;;;;;6.53;3.22;;;17.30;99.90;;;;;;4952946;28;20019;-78
2023/07/24 01:50:18;;;;;;;7.18;2.97;;;17.20;99.90;;;;;;4970123;28;20061;-77
2023/07/24 01:52:45;;;;;;;4.03;2.85;;;17.30;99.90;;;;;;4970817;28;20102;-78
2023/07/24 01:55:10;;;;;;;4.05;3.05;;;17.20;99.90;;;;;;4970626;28;20034;-78
2023/07/24 01:57:36;;;;;;;6.25;3.05;;;17.30;99.90;;;;;;4970928;28;20037;-78
2023/07/24 02:00:02;;;;;;;5.50;3.53;;;17.30;99.90;;;;;;4953490;28;20034;-78
2023/07/24 02:02:28;;;;;;;5.25;2.85;;;17.30;99.90;;;;;;4953640;28;20030;-78
2023/07/24 02:04:53;;;;;;;7.20;3.90;;;17.40;99.90;;;;;;4969929;28;20034;-77
2023/07/24 02:07:19;;;;;;;3.88;2.55;;;17.50;99.90;;;;;;4970262;28;20023;-78
2023/07/24 02:09:45;;;;;;;5.32;2.65;;;17.40;99.90;;;;;;4970650;28;20081;-78
2023/07/24 02:12:10;;;;;;;8.20;4.05;;;17.40;99.90;;;;;;4970567;28;20449;-78
2023/07/24 02:14:36;;;;;;;6.43;3.70;;;17.40;99.90;;;;;;4952939;28;20045;-78
2023/07/24 02:17:02;;;;;;;6.88;3.55;;;17.40;99.90;;;;;;4970423;28;20031;-77
2023/07/24 02:19:27;;;;;;;5.82;2.85;;;17.40;99.90;;;;;;4970174;28;20492;-77
2023/07/24 02:21:53;;;;;;;4.75;2.75;;;17.40;99.90;;;;;;4952566;28;20059;-78
2023/07/24 02:24:18;;;;;;;3.67;2.95;;;17.30;99.90;;;;;;4952810;28;20086;-78
2023/07/24 02:26:44;;;;;;;3.85;2.88;;;17.20;99.90;;;;;;4970213;28;20452;-78
2023/07/24 02:29:10;;;;;;;5.22;3.00;;;17.20;99.90;;;;;;4952882;28;20022;-78
2023/07/24 02:31:35;;;;;;;4.78;3.83;;;17.10;99.90;;;;;;4953007;28;20077;-78
2023/07/24 02:34:01;;;;;;;4.82;3.22;;;17.00;99.90;;;;;;4969993;28;20061;-78
2023/07/24 02:36:26;;;;;;;4.30;3.30;;;17.00;99.90;;;;;;4952320;28;20118;-77
2023/07/24 02:38:52;;;;;;;5.63;3.70;;;17.00;99.90;;;;;;4971302;28;20046;-78
2023/07/24 02:41:18;;;;;;;4.85;3.38;;;17.00;99.90;;;;;;4954305;28;20138;-78
2023/07/24 02:43:43;;;;;;;4.75;2.80;;;17.00;99.90;;;;;;4952622;28;20027;-77
2023/07/24 02:46:09;;;;;;;5.80;3.13;;;16.90;99.90;;;;;;4952723;28;20440;-78
2023/07/24 02:48:35;;;;;;;6.80;4.25;;;16.90;99.90;;;;;;4973746;28;20077;-78
2023/07/24 02:51:00;;;;;;;5.85;2.88;;;16.80;99.90;;;;;;4956227;28;20389;-77
2023/07/24 02:53:26;;;;;;;6.60;3.50;;;16.80;99.90;;;;;;4955653;28;20077;-78
2023/07/24 02:55:51;;;;;;;5.95;3.30;;;16.80;99.90;;;;;;4973555;28;20046;-78
2023/07/24 02:58:17;;;;;;;5.63;3.60;;;16.80;99.90;;;;;;4955431;28;20030;-78
2023/07/24 03:00:43;;;;;;;5.07;2.85;;;16.80;99.90;;;;;;4973154;28;20096;-78
2023/07/24 03:03:08;;;;;;;5.68;3.35;;;16.80;99.90;;;;;;4973373;28;20050;-78
2023/07/24 03:05:34;;;;;;;4.13;2.88;;;16.80;99.90;;;;;;4955777;28;20535;-78
2023/07/24 03:08:00;;;;;;;6.97;3.85;;;16.90;99.90;;;;;;4973105;28;20030;-78
2023/07/24 03:10:26;;;;;;;9.13;3.85;;;16.90;99.90;;;;;;4973118;28;20031;-77
2023/07/24 03:12:52;;;;;;;8.15;3.17;;;17.00;99.90;;;;;;4973025;28;20080;-78
2023/07/24 03:15:18;;;;;;;5.93;3.60;;;17.00;99.90;;;;;;4972918;28;20113;-78
2023/07/24 03:17:44;;;;;;;7.90;3.28;;;17.00;99.90;;;;;;4972905;28;20157;-78
2023/07/24 03:20:15;;;;;;;3.13;2.80;;;17.10;99.90;;;;;;4973068;28;20207;-78
2023/07/24 03:22:41;;;;;;;5.30;3.10;;;17.00;99.90;;;;;;4972603;28;20182;-78
2023/07/24 03:25:07;;;;;;;7.50;4.50;;;17.00;99.90;;;;;;4955624;28;20483;-77
2023/07/24 03:27:33;;;;;;;5.03;3.45;;;17.20;99.90;;;;;;4955647;28;20562;-78
2023/07/24 03:29:59;;;;;;;5.22;3.35;;;17.30;99.90;;;;;;4955695;28;20062;-78
2023/07/24 03:32:24;;;;;;;6.20;3.92;;;17.20;99.90;;;;;;4955170;28;20081;-78
2023/07/24 03:34:50;;;;;;;5.88;3.72;;;17.20;99.90;;;;;;4955401;28;20050;-77
2023/07/24 03:37:16;;;;;;;4.43;2.83;;;17.10;99.90;;;;;;4955151;28;20120;-78
2023/07/24 03:39:41;;;;;;;9.70;4.10;;;17.00;99.90;;;;;;4955534;28;20027;-78
2023/07/24 03:42:10;;;;;;;4.93;3.38;;;17.10;99.90;;;;;;4972850;28;20520;-78
2023/07/24 03:44:35;;;;;;;11.90;3.10;;;17.10;99.90;;;;;;4955302;28;20492;-78
2023/07/24 03:47:01;;;;;;;5.15;3.65;;;17.20;99.90;;;;;;4972420;28;20102;-78
2023/07/24 03:49:27;;;;;;;6.20;4.18;;;17.20;99.90;;;;;;4971974;28;20031;-78
2023/07/24 03:51:52;;;;;;;5.35;3.95;;;17.40;99.90;;;;;;4971905;28;20801;-78
2023/07/24 03:54:18;;;;;;;3.67;2.53;;;17.50;99.90;;;;;;4954658;28;20431;-78
2023/07/24 03:56:43;;;;;;;7.47;3.28;;;17.50;99.90;;;;;;4972692;28;20073;-78
2023/07/24 03:59:09;;;;;;;7.00;3.95;;;17.70;99.90;;;;;;4953853;28;20423;-78
2023/07/24 04:01:35;;;;;;;11.25;4.07;;;17.70;99.90;;;;;;4972663;28;20380;-77
2023/07/24 04:04:01;;;;;;;4.85;2.78;;;17.70;99.90;;;;;;4972303;28;20037;-77
2023/07/24 04:06:26;;;;;;;9.98;4.07;;;18.10;99.90;;;;;;4954702;28;20042;-78
2023/07/24 04:08:52;;;;;;;8.65;4.03;;;18.60;99.90;;;;;;4974014;28;20519;-78
2023/07/24 04:11:18;;;;;;;3.85;3.25;;;19.40;99.90;;;;;;4956194;28;20027;-78
2023/07/24 04:13:43;;;;;;;6.15;3.92;;;20.00;99.90;;;;;;4955959;28;20022;-78
2023/07/24 04:16:09;;;;;;;5.97;3.67;;;20.00;99.90;;;;;;4972478;28;20487;-79
2023/07/24 04:18:35;;;;;;;7.63;4.00;;;20.00;99.90;;;;;;4955661;28;20121;-79
2023/07/24 04:21:01;;;;;;;7.30;3.53;;;20.00;99.90;;;;;;4956261;28;20207;-79
2023/07/24 04:23:27;;;;;;;4.78;3.03;;;19.90;99.90;;;;;;4955479;28;20114;-79
2023/07/24 04:25:53;;;;;;;7.38;3.65;;;19.90;99.90;;;;;;4972704;28;20101;-79
2023/07/24 04:28:18;;;;;;;9.20;3.35;;;19.70;99.90;;;;;;4972032;28;20030;-79
2023/07/24 04:30:44;;;;;;;5.85;3.20;;;19.50;99.90;;;;;;4954898;28;20026;-79
2023/07/24 04:33:09;;;;;;;5.15;2.90;;;19.30;99.90;;;;;;4972141;28;20476;-79
2023/07/24 04:35:35;;;;;;;6.15;3.47;;;19.00;99.90;;;;;;4972038;28;20149;-79
2023/07/24 04:38:01;;;;;;;4.30;2.70;;;18.70;99.90;;;;;;4972734;28;20140;-80
2023/07/24 04:40:26;;;;;;;2.15;1.80;;;18.60;99.90;;;;;;4972895;28;20050;-79
2023/07/24 04:42:52;;;;;;;2.67;1.92;;;18.40;99.90;;;;;;4973045;28;20159;-79
2023/07/24 04:45:17;;;;;;;4.10;2.42;;;18.20;99.90;;;;;;4972824;28;20030;-79
2023/07/24 04:47:43;;;;;;;4.15;1.73;;;18.00;99.90;;;;;;4955259;28;20023;-79
2023/07/24 04:50:09;;;;;;;3.70;1.80;;;17.70;99.90;;;;;;4955082;28;20029;-79
2023/07/24 04:52:35;;;;;;;4.25;2.47;;;17.60;99.90;;;;;;4954233;28;20387;-79
2023/07/24 04:55:00;;;;;;;4.13;2.38;;;17.50;99.90;;;;;;4971853;28;20407;-79
2023/07/24 04:57:26;;;;;;;6.07;2.10;;;17.40;99.90;;;;;;4971809;28;20090;-79
2023/07/24 04:59:51;;;;;;;2.35;1.65;;;17.30;99.90;;;;;;4954157;28;20034;-79
2023/07/24 05:02:17;;;;;;;2.17;1.63;;;17.30;99.90;;;;;;4971355;28;20099;-79
2023/07/24 05:04:43;;;;;;;2.95;1.98;;;17.30;99.90;;;;;;4953819;28;20077;-79
2023/07/24 05:07:08;;;;;;;4.43;2.15;;;17.30;99.90;;;;;;4953611;28;20027;-78
2023/07/24 05:09:34;;;;;;;2.58;2.00;;;17.30;99.90;;;;;;4972753;28;20101;-78
2023/07/24 05:11:59;;;;;;;2.90;1.35;;;17.50;99.90;;;;;;4971976;28;20260;-79
2023/07/24 05:14:25;;;;;;;4.18;1.70;;;17.50;99.90;;;;;;4970959;28;20042;-79
2023/07/24 05:16:51;;;;;;;3.42;1.80;;;17.40;99.90;;;;;;4972098;28;20022;-80
2023/07/24 05:19:16;;;;;;;4.35;2.30;;;17.60;99.90;;;;;;4971915;28;20041;-79
2023/07/24 05:21:42;;;;;;;3.92;1.52;;;17.60;99.90;;;;;;4971130;28;20519;-79
2023/07/24 05:24:07;;;;;;;3.85;2.03;;;17.60;99.90;;;;;;4971348;28;20030;-79
2023/07/24 05:26:33;;;;;;;3.33;2.10;;;17.70;99.90;;;;;;4971344;28;20107;-80
2023/07/24 05:28:59;;;;;;;5.03;2.35;;;17.80;99.90;;;;;;4971413;28;20030;-81
2023/07/24 05:31:24;;;;;;;7.07;2.33;;;17.80;99.90;;;;;;4972464;28;20471;-81
2023/07/24 05:33:50;;;;;;;2.90;1.80;;;18.00;99.90;;;;;;4957069;28;20117;-83
2023/07/24 05:36:15;;;;;;;2.20;1.85;;;18.00;99.90;;;;;;4970957;28;20110;-80
2023/07/24 05:38:41;;;;;;;3.28;1.55;;;18.00;99.90;;;;;;4953689;28;20403;-81
2023/07/24 05:41:06;;;;;;;3.25;2.00;;;18.00;99.90;;;;;;4971209;28;20026;-80
2023/07/24 05:43:32;;;;;;;4.18;2.28;;;18.10;99.90;;;;;;4953793;28;20525;-80
2023/07/24 05:45:58;;;;;;;3.88;2.17;;;18.20;99.90;;;;;;4971162;28;20035;-80
2023/07/24 05:48:24;;;;;;;3.33;2.20;;;18.30;99.90;;;;;;4970591;28;20049;-80
2023/07/24 05:50:50;;;;;;;2.33;1.45;;;18.40;99.90;;;;;;4970930;28;20041;-80
2023/07/24 05:53:16;;;;;;;6.38;2.00;;;18.40;99.90;;;;;;4970612;28;20019;-81
2023/07/24 05:55:43;;;;;;;6.07;2.53;;;18.40;99.90;;;;;;4970619;28;20101;-80
2023/07/24 05:58:09;;;;;;;3.55;1.73;;;18.40;99.90;;;;;;4953217;28;20036;-79
2023/07/24 06:00:36;;;;;;;5.65;1.83;;;18.50;99.90;;;;;;4953541;28;20031;-79
2023/07/24 06:03:02;;;;;;;5.00;2.50;;;18.50;99.90;;;;;;4970794;28;20023;-80
2023/07/24 06:05:28;;;;;;;2.58;1.67;;;18.60;99.90;;;;;;4970743;28;20030;-80
2023/07/24 06:07:54;;;;;;;3.92;2.15;;;18.40;99.90;;;;;;4970279;28;20034;-79
2023/07/24 06:10:20;;;;;;;4.80;1.90;;;18.50;99.90;;;;;;4953739;28;20039;-80
2023/07/24 06:12:46;;;;;;;3.30;1.88;;;18.40;99.90;;;;;;4953694;28;20023;-80
2023/07/24 06:15:11;;;;;;;6.32;2.50;;;18.40;99.90;;;;;;4953243;28;20046;-80
2023/07/24 06:17:37;;;;;;;3.33;1.67;;;18.30;99.90;;;;;;4953503;28;20038;-79
2023/07/24 06:20:02;;;;;;;3.72;2.00;;;18.50;99.90;;;;;;4953951;28;20037;-81
2023/07/24 06:22:28;;;;;;;7.25;2.00;;;18.40;99.90;;;;;;4973200;28;20049;-81
2023/07/24 06:24:54;;;;;;;5.47;2.15;;;18.40;99.90;;;;;;4975202;28;20030;-81
2023/07/24 06:27:19;;;;;;;3.05;2.13;;;18.30;99.90;;;;;;4957891;28;20089;-81
2023/07/24 06:29:45;;;;;;;2.97;1.70;;;18.60;99.90;;;;;;4957360;28;20023;-81
2023/07/24 06:32:10;;;;;;;2.95;1.52;;;18.80;99.90;;;;;;4974577;28;20046;-80
2023/07/24 06:34:36;;;;;;;3.08;2.00;;;19.10;99.90;;;;;;4974563;28;20491;-81
2023/07/24 06:37:02;;;;;;;2.78;2.05;;;19.50;99.90;;;;;;4956536;28;20027;-81
2023/07/24 06:39:28;;;;;;;4.30;1.65;;;19.90;99.90;;;;;;4974386;28;20035;-80
2023/07/24 06:41:55;;;;;;;4.57;2.20;;;20.30;99.90;;;;;;4974352;28;20102;-81
2023/07/24 06:44:21;;;;;;;2.58;1.60;;;20.50;99.90;;;;;;4956973;28;20550;-82
2023/07/24 06:46:46;;;;;;;2.15;1.90;;;20.40;99.90;;;;;;4974092;28;20110;-80
2023/07/24 06:49:12;;;;;;;2.47;1.58;;;20.60;99.90;;;;;;4956584;28;20554;-80
2023/07/24 06:51:41;;;;;;;6.18;1.67;;;20.70;99.90;;;;;;4956575;28;20527;-80
2023/07/24 06:54:06;;;;;;;1.57;1.10;;;20.90;99.90;;;;;;4956763;28;20043;-78
2023/07/24 06:56:32;;;;;;;2.88;2.00;;;21.00;99.90;;;;;;4957130;28;20273;-79
2023/07/24 06:58:58;;;;;;;4.32;2.05;;;21.20;99.90;;;;;;4974617;28;20019;-80
2023/07/24 07:01:23;;;;;;;5.68;2.58;;;21.30;99.90;;;;;;4974376;28;20042;-80
2023/07/24 07:03:49;;;;;;;2.35;1.60;;;21.40;99.90;;;;;;4956506;28;20066;-81
2023/07/24 07:06:15;;;;;;;1.65;1.50;;;21.20;99.90;;;;;;4956414;28;20117;-80
2023/07/24 07:08:41;;;;;;;1.58;1.48;;;20.90;99.90;;;;;;4956629;28;20038;-80
2023/07/24 07:11:06;;;;;;;2.28;1.30;;;20.80;99.90;;;;;;4956805;28;20455;-81
2023/07/24 07:13:32;;;;;;;3.63;2.28;;;20.90;99.90;;;;;;4956912;28;20022;-80
2023/07/24 07:15:58;;;;;;;3.83;2.38;;;20.90;99.90;;;;;;4956588;28;20125;-80
2023/07/24 07:18:23;;;;;;;3.03;1.73;;;20.80;99.90;;;;;;4974089;28;20110;-80
2023/07/24 07:20:51;;;;;;;3.03;2.03;;;20.80;99.90;;;;;;4973625;28;20081;-80
2023/07/24 07:23:17;;;;;;;4.05;2.05;;;20.70;99.90;;;;;;4973336;28;20027;-80
2023/07/24 07:25:44;;;;;;;1.98;1.52;;;20.80;99.90;;;;;;4956492;28;20487;-80
2023/07/24 07:28:13;;;;;;;2.35;1.67;;;20.80;99.90;;;;;;4956289;28;20038;-80
2023/07/24 07:30:40;;;;;;;3.47;1.70;;;20.90;99.90;;;;;;4973657;28;20027;-80
2023/07/24 07:33:06;;;;;;;2.97;1.70;;;21.00;99.90;;;;;;4955112;28;20110;-80
2023/07/24 07:35:35;;;;;;;5.13;2.75;;;21.10;99.90;;;;;;4973766;28;20122;-80
2023/07/24 07:38:01;;;;;;;3.47;2.20;;;21.30;99.90;;;;;;4973324;28;20077;-80
2023/07/24 07:40:27;;;;;;;2.35;1.70;;;21.60;99.90;;;;;;4956010;28;20038;-80
2023/07/24 07:42:53;;;;;;;3.20;2.13;;;21.80;99.90;;;;;;4956464;28;20023;-80
2023/07/24 07:45:20;;;;;;;2.92;2.08;;;22.10;99.90;;;;;;4956418;28;20074;-79
2023/07/24 07:47:45;;;;;;;4.07;2.22;;;22.50;99.90;;;;;;4955857;28;20077;-79
2023/07/24 07:50:11;;;;;;;6.38;3.60;;;23.00;99.90;;;;;;4955992;28;20487;-79
2023/07/24 07:52:37;;;;;;;4.30;2.20;;;23.20;99.90;;;;;;4955754;28;20090;-79
2023/07/24 07:55:03;;;;;;;1.88;1.60;;;23.60;99.90;;;;;;4955844;28;20043;-79
2023/07/24 07:57:28;;;;;;;4.10;2.80;;;23.90;99.90;;;;;;4955868;28;20023;-79
2023/07/24 07:59:54;;;;;;;4.22;2.33;;;24.50;99.90;;;;;;4955661;28;20053;-79
2023/07/24 08:02:20;;;;;;;4.18;3.75;;;25.20;99.90;;;;;;4955448;28;20031;-79
2023/07/24 08:04:45;;;;;;;15.50;10.23;;;25.90;99.90;;;;;;4972664;28;20058;-78
2023/07/24 08:07:11;;;;;;;2.75;2.45;;;27.00;99.90;;;;;;4972180;28;20034;-79
2023/07/24 08:09:38;;;;;;;3.50;2.10;;;28.00;98.80;;;;;;4955443;28;20031;-79
2023/07/24 08:12:04;;;;;;;4.82;2.53;;;28.30;95.60;;;;;;4955240;28;20030;-79
2023/07/24 08:14:30;;;;;;;3.10;2.20;;;28.60;95.10;;;;;;4954957;28;20541;-79
2023/07/24 08:16:56;;;;;;;3.17;2.22;;;28.80;93.50;;;;;;4972340;28;20027;-79
2023/07/24 08:19:21;;;;;;;5.45;2.35;;;28.60;93.10;;;;;;4972705;28;20031;-78
2023/07/24 08:21:47;;;;;;;4.88;2.25;;;27.90;92.10;;;;;;4971879;28;20299;-79
2023/07/24 08:24:13;;;;;;;5.57;2.25;;;27.50;94.20;;;;;;4972692;28;20567;-78
2023/07/24 08:26:39;;;;;;;2.80;1.90;;;27.30;94.20;;;;;;4956800;28;20118;-79
2023/07/24 08:29:05;;;;;;;2.88;2.20;;;27.20;93.80;;;;;;4972218;28;20046;-79
2023/07/24 08:31:31;;;;;;;4.50;2.10;;;27.10;92.50;;;;;;4972268;28;20027;-80
2023/07/24 08:33:57;;;;;;;5.47;2.67;;;26.90;93.00;;;;;;4954351;28;20383;-80
2023/07/24 08:36:23;;;;;;;5.82;2.10;;;26.70;95.00;;;;;;4954128;28;20037;-79
2023/07/24 08:38:49;;;;;;;2.35;2.15;;;26.80;95.70;;;;;;4971381;28;20034;-79
2023/07/24 08:41:14;;;;;;;2.47;1.80;;;26.50;95.90;;;;;;4954475;28;20498;-79
2023/07/24 08:43:43;;;;;;;2.47;1.92;;;26.50;95.50;;;;;;4954014;28;20030;-79
2023/07/24 08:46:10;;;;;;;3.05;1.80;;;26.70;95.10;;;;;;4953945;28;20028;-79
2023/07/24 08:48:39;;;;;;;3.70;2.17;;;26.40;96.50;;;;;;4971882;28;20050;-79
2023/07/24 08:51:07;;;;;;;4.53;2.17;;;26.10;96.40;;;;;;4971393;28;20101;-79
2023/07/24 08:53:37;;;;;;;17.98;9.55;;;25.30;95.60;;;;;;4971448;28;20555;-79
2023/07/24 08:56:07;;;;;;;4.25;3.13;;;24.70;98.40;;;;;;4954274;28;20073;-78
2023/07/24 08:58:34;;;;;;;4.22;2.65;;;24.40;99.90;;;;;;4954012;28;20022;-79
2023/07/24 09:01:01;;;;;;;2.58;1.90;;;24.10;99.90;;;;;;4971455;28;20027;-80
2023/07/24 09:03:27;;;;;;;4.20;1.60;;;23.40;99.90;;;;;;4955278;28;20027;-79
2023/07/24 09:05:53;;;;;;;4.95;1.90;;;22.10;99.90;;;;;;4982068;28;20041;-79
2023/07/24 09:08:41;;;;;;;3.00;1.92;;;21.20;99.90;;;;;;4976228;28;20499;-78
2023/07/24 09:11:08;;;;;;;1.05;0.80;;;20.30;99.90;;;;;;4955124;28;20030;-78
2023/07/24 09:13:36;;;;;;;2.40;0.60;;;20.00;99.90;;;;;;4955080;28;20045;-78
2023/07/24 09:16:02;;;;;;;1.80;0.97;;;19.50;99.90;;;;;;4954903;28;20082;-78
2023/07/24 09:18:39;;;;;;;1.45;0.60;;;19.30;99.90;;;;;;4955132;28;20051;-79
2023/07/24 09:21:05;;;;;;;1.23;0.95;;;19.20;99.90;;;;;;4953963;28;20283;-78
2023/07/24 09:23:31;;;;;;;0.88;0.55;;;19.20;99.90;;;;;;4954142;28;20275;-78
2023/07/24 09:25:56;;;;;;;1.85;1.25;;;19.10;99.90;;;;;;4972116;28;20051;-78
2023/07/24 09:28:23;;;;;;;4.45;0.60;;;18.90;99.90;;;;;;4971924;28;20061;-78
2023/07/24 09:31:00;;;;;;;1.08;0.75;;;18.90;99.90;;;;;;4970782;28;20033;-78
2023/07/24 09:33:40;;;;;;;0.77;0.77;;;18.90;99.90;;;;;;4953286;28;20041;-78
2023/07/24 09:36:08;;;;;;;3.03;1.65;;;19.00;99.90;;;;;;4970299;28;20054;-79
2023/07/24 09:38:34;;;;;;;7.18;1.10;;;19.00;99.90;;;;;;4971053;28;20031;-80
2023/07/24 09:41:03;;;;;;;3.63;0.82;;;18.80;99.90;;;;;;4953944;28;20073;-79
2023/07/24 09:43:29;;;;;;;1.17;1.08;;;18.30;99.90;;;;;;4954023;28;20027;-79
2023/07/24 09:45:56;;;;;;;0.82;0.70;;;18.00;99.90;;;;;;4954012;28;20028;-79
2023/07/24 09:48:24;;;;;;;2.50;1.17;;;17.80;99.90;;;;;;4954520;28;20041;-78
2023/07/24 09:50:57;;;;;;;5.43;1.13;;;17.50;99.90;;;;;;4955318;28;20126;-81
2023/07/24 09:53:29;;;;;;;1.02;0.90;;;17.20;99.90;;;;;;4954571;28;20022;-82
2023/07/24 09:55:57;;;;;;;1.52;1.38;;;16.90;99.90;;;;;;4976649;28;20038;-80
2023/07/24 09:58:25;;;;;;;3.13;1.20;;;16.60;99.90;;;;;;4971615;28;20039;-80
2023/07/24 10:00:52;;;;;;;1.00;0.90;;;16.40;99.90;;;;;;4960645;28;20034;-80
2023/07/24 10:03:20;;;;;;;2.65;1.15;;;16.30;99.90;;;;;;4954381;28;20023;-81
2023/07/24 10:05:46;;;;;;;5.90;1.48;;;16.30;99.90;;;;;;4954908;28;20206;-80
2023/07/24 10:08:14;;;;;;;3.47;1.40;;;16.40;99.90;;;;;;4955247;28;20022;-80
2023/07/24 10:10:39;;;;;;;5.35;2.58;;;16.40;99.90;;;;;;4961216;28;20034;-81
2023/07/24 10:13:06;;;;;;;2.00;1.48;;;16.50;99.90;;;;;;4954236;28;20031;-82
2023/07/24 10:15:32;;;;;;;4.45;1.58;;;16.90;99.90;;;;;;4954337;28;20483;-80
2023/07/24 10:18:06;;;;;;;2.78;1.50;;;17.60;99.90;;;;;;4953535;28;20287;-81
2023/07/24 10:20:35;;;;;;;4.43;2.08;;;18.40;99.90;;;;;;4953566;28;20031;-80
2023/07/24 10:23:02;;;;;;;;;;;18.80;99.90;;;;;;4970835;28;20155;-80
2023/07/24 10:25:32;;;;;;;1.77;1.63;;;19.00;99.90;;;;;;4971184;28;19962;-81
2023/07/24 10:28:07;;;;;;;2.25;1.70;;;19.10;99.90;;;;;;4970705;28;20111;-81
2023/07/24 10:30:41;;;;;;;8.85;1.88;;;19.10;99.90;;;;;;4953636;28;20053;-82
2023/07/24 10:33:10;;;;;;;3.50;1.60;;;18.90;99.90;;;;;;4970965;28;20051;-81
2023/07/24 10:35:45;;;;;;;2.35;1.20;;;19.00;99.90;;;;;;4972806;28;20043;-81
2023/07/24 10:38:12;;;;;;;2.35;1.20;;;18.60;99.90;;;;;;4970938;28;20034;-81
2023/07/24 10:40:40;;;;;;;3.05;1.80;;;18.50;99.90;;;;;;4975754;28;20026;-82
2023/07/24 10:43:07;;;;;;;3.40;2.00;;;18.50;99.90;;;;;;4972393;28;20094;-82
2023/07/24 10:45:50;;;;;;;4.70;2.88;;;18.80;99.90;;;;;;4970943;28;20035;-82
2023/07/24 10:48:20;;;;;;;2.45;2.25;;;19.00;99.90;;;;;;4956343;28;20738;-80
2023/07/24 10:51:08;;;;;;;4.50;1.92;;;19.10;99.90;;;;;;4979307;28;20007;-79
2023/07/24 10:53:35;;;;;;;3.53;1.77;;;18.90;99.90;;;;;;4972521;28;20027;-81
2023/07/24 10:56:01;;;;;;;4.72;1.85;;;18.80;99.90;;;;;;4954030;28;20038;-81
2023/07/24 10:58:27;;;;;;;1.85;1.35;;;18.50;99.90;;;;;;4953506;28;20019;-81
2023/07/24 11:00:52;;;;;;;3.47;1.88;;;18.60;99.90;;;;;;4953290;28;20562;-80
2023/07/24 11:03:19;;;;;;;2.47;1.73;;;18.90;99.90;;;;;;4970244;28;20027;-79
2023/07/24 11:05:46;;;;;;;2.25;1.77;;;19.20;99.90;;;;;;4953101;28;20031;-80
2023/07/24 11:08:14;;;;;;;5.72;2.63;;;19.30;99.90;;;;;;4954584;28;20034;-79
2023/07/24 11:10:48;;;;;;;4.77;2.47;;;19.40;99.90;;;;;;4956736;28;20114;-80
2023/07/24 11:13:14;;;;;;;8.02;2.28;;;19.40;99.90;;;;;;4956909;28;20267;-80
2023/07/24 11:15:40;;;;;;;3.80;1.73;;;19.10;99.90;;;;;;4975328;28;20487;-80
2023/07/24 11:18:09;;;;;;;2.85;1.33;;;19.00;99.90;;;;;;4965816;28;20034;-81
2023/07/24 11:20:43;;;;;;;2.92;2.30;;;18.90;99.90;;;;;;4984507;28;20027;-80
2023/07/24 11:23:10;;;;;;;6.22;1.58;;;18.80;99.90;;;;;;4955885;28;20503;-81
2023/07/24 11:25:37;;;;;;;3.78;2.38;;;18.50;99.90;;;;;;4956572;28;20038;-79
2023/07/24 11:28:06;;;;;;;5.22;1.65;;;18.40;99.90;;;;;;4974952;28;20062;-81
2023/07/24 11:30:31;;;;;;;2.47;1.58;;;18.10;99.90;;;;;;4956662;28;20027;-82
2023/07/24 11:33:00;;;;;;;4.53;2.28;;;18.30;99.90;;;;;;4973859;28;20100;-81
2023/07/24 11:35:26;;;;;;;3.25;1.65;;;18.60;99.90;;;;;;4956313;28;20041;-80
2023/07/24 11:37:52;;;;;;;3.25;1.77;;;19.10;99.90;;;;;;4972993;28;20471;-79
2023/07/24 11:40:19;;;;;;;2.40;1.90;;;19.60;99.90;;;;;;4955793;28;20093;-79
2023/07/24 11:42:47;;;;;;;7.43;2.25;;;20.10;99.90;;;;;;4956095;28;20394;-79
2023/07/24 11:45:13;;;;;;;2.45;1.80;;;20.10;99.90;;;;;;4973492;28;20035;-80
2023/07/24 11:47:49;;;;;;;2.38;1.65;;;20.00;99.90;;;;;;4973507;28;20499;-80
2023/07/24 11:50:15;;;;;;;5.53;2.20;;;20.10;99.90;;;;;;4973661;28;20127;-80
2023/07/24 11:52:46;;;;;;;5.32;1.88;;;20.00;99.90;;;;;;4955488;28;20038;-79
2023/07/24 11:55:15;;;;;;;4.85;2.00;;;19.70;99.90;;;;;;4972947;28;20113;-80
2023/07/24 11:57:41;;;;;;;2.13;1.38;;;19.50;99.90;;;;;;4955657;28;20027;-81
2023/07/24 12:00:19;;;;;;;2.50;1.80;;;19.40;99.90;;;;;;4955657;28;20085;-80
2023/07/24 12:02:45;;;;;;;2.25;2.05;;;19.50;99.90;;;;;;4955529;28;20122;-79
2023/07/24 12:05:10;;;;;;;3.78;1.95;;;19.50;99.90;;;;;;4960249;28;20122;-80
2023/07/24 12:07:36;;;;;;;2.17;1.50;;;19.20;99.90;;;;;;4956371;28;20023;-80
2023/07/24 12:10:05;;;;;;;2.83;2.13;;;19.00;99.90;;;;;;4973480;28;20045;-79
2023/07/24 12:12:44;;;;;;;2.38;2.15;;;18.80;99.90;;;;;;4955864;28;20086;-79
2023/07/24 12:15:11;;;;;;;2.83;2.15;;;18.60;99.90;;;;;;4958206;28;20031;-80
2023/07/24 12:17:38;;;;;;;3.03;1.63;;;18.50;99.90;;;;;;4972864;28;20101;-80
2023/07/24 12:20:05;;;;;;;2.80;2.30;;;18.50;99.90;;;;;;4972630;28;20432;-81
2023/07/24 12:22:32;;;;;;;3.45;2.28;;;18.50;99.90;;;;;;4955134;28;20396;-79
2023/07/24 12:24:58;;;;;;;4.80;1.88;;;18.40;99.90;;;;;;4972832;28;20267;-81
2023/07/24 12:27:24;;;;;;;3.53;1.98;;;18.30;99.90;;;;;;4955812;28;20027;-81
2023/07/24 12:29:51;;;;;;;2.00;1.80;;;18.40;99.90;;;;;;4972935;28;20460;-80
2023/07/24 12:32:17;;;;;;;5.80;3.30;;;18.60;99.90;;;;;;4955081;28;20033;-79
2023/07/24 12:34:43;;;;;;;3.67;2.33;;;18.70;99.90;;;;;;4972146;28;20039;-79
2023/07/24 12:37:09;;;;;;;4.63;2.38;;;18.70;99.90;;;;;;4954793;28;20089;-79
2023/07/24 12:39:35;;;;;;;4.20;1.95;;;18.90;99.90;;;;;;4954990;28;20027;-79
2023/07/24 12:42:01;;;;;;;3.60;2.42;;;18.80;99.90;;;;;;4972218;28;20027;-80
2023/07/24 12:44:26;;;;;;;2.00;1.80;;;18.80;99.90;;;;;;4972066;28;20026;-80
2023/07/24 12:46:52;;;;;;;2.58;2.30;;;18.80;99.90;;;;;;4954580;28;20030;-79